1865 Tropical Storm NOT_NAMED (1865274N20278)


IBTrACS version v04r00. Visit IBTrACS website for data access.
Please direct all questions to the IBTrACS Q and A forum

Storm track - Intensity - Wind Radii - Intensity Data - Source Data - All data

Summary Information

Storm ID 1865274N20278
Start Sep 30 12Z
Landfall Oct 1 12Z, Oct 5 12Z
Max Intensity 60 kt (Oct 7 06Z)
End Oct 8 12Z
ATCF IDs
Track status Best track data.

Storm track plot

Map of storm track

Intensity plots

Map of storm track

Radial wind information

No radial wind information for this storm


Position and Intensity Table

BASIN ISO_TIME_________ NATURE LAT LON MLC WIND MLC PRES
degrees north degrees east kts mb
NA 1865-09-30 12:00:00 TS 19.50 -82.30 35
NA 15:00:00 TS 19.85 -82.25 37
NA 18:00:00 TS 20.20 -82.20 40
NA 21:00:00 TS 20.55 -82.16 42
NA 1865-10-01 00:00:00 TS 20.90 -82.10 45
NA 03:00:00 TS 21.25 -82.00 47
NA 06:00:00 TS 21.60 -81.90 50
NA 09:00:00 TS 21.95 -81.87 52
NA 12:00:00 TS 22.30 -81.80 55
NA 15:00:00 TS 22.66 -81.57 55
NA 18:00:00 TS 23.00 -81.30 55
NA 21:00:00 TS 23.30 -81.10 55
NA 1865-10-02 00:00:00 TS 23.60 -80.90 55
NA 03:00:00 TS 23.95 -80.65 52
NA 06:00:00 TS 24.30 -80.40 50
NA 09:00:00 TS 24.61 -80.29 50
NA 12:00:00 TS 24.90 -80.00 50
NA 15:00:00 TS 25.20 -79.25 50
NA 18:00:00 TS 25.50 -78.30 50
NA 21:00:00 TS 25.80 -77.45 50
NA 1865-10-03 00:00:00 TS 26.10 -76.60 50
NA 03:00:00 TS 26.40 -75.75 50
NA 06:00:00 TS 26.70 -74.90 50
NA 09:00:00 TS 26.85 -74.20 50
NA 12:00:00 TS 27.30 -73.20 50
NA 15:00:00 TS 28.42 -71.47 50
NA 18:00:00 TS 29.80 -69.40 50
NA 21:00:00 TS 30.98 -67.46 50
NA 1865-10-04 00:00:00 TS 32.20 -65.50 50 1001
NA 03:00:00 TS 33.53 -63.50 50
NA 06:00:00 TS 34.90 -61.50 50
NA 09:00:00 TS 36.22 -59.25 45
NA 12:00:00 TS 37.50 -57.50 40
NA 15:00:00 TS 38.75 -56.93 37
NA 18:00:00 ET 40.00 -56.90 35
NA 21:00:00 ET 41.25 -56.60 35
NA 1865-10-05 00:00:00 ET 42.50 -56.30 35
NA 03:00:00 ET 43.75 -56.01 37
NA 06:00:00 ET 45.00 -55.70 40
NA 09:00:00 ET 46.34 -55.54 40
NA 12:00:00 ET 47.50 -55.00 40
NA 15:00:00 ET 48.21 -53.55 40
NA 18:00:00 ET 48.70 -51.70 40
NA 21:00:00 ET 49.22 -50.00 40
NA 1865-10-06 00:00:00 ET 49.80 -48.30 40
NA 03:00:00 ET 50.63 -46.61 40
NA 06:00:00 ET 51.40 -44.90 40
NA 09:00:00 ET 51.82 -43.20 42
NA 12:00:00 ET 52.00 -41.50 45
NA 15:00:00 ET 52.04 -39.75 47
NA 18:00:00 ET 52.00 -38.00 50
NA 21:00:00 ET 52.00 -36.25 52
NA 1865-10-07 00:00:00 ET 52.00 -34.50 55
NA 03:00:00 ET 51.95 -32.75 57
NA 06:00:00 ET 51.90 -31.00 60
NA 09:00:00 ET 51.86 -29.23 60
NA 12:00:00 ET 51.80 -27.50 60
NA 15:00:00 ET 51.67 -25.89 60
NA 18:00:00 ET 51.50 -24.30 60
NA 21:00:00 ET 51.31 -22.65 60
NA 1865-10-08 00:00:00 ET 51.10 -21.00 60
NA 03:00:00 ET 50.89 -19.40 60
NA 06:00:00 ET 50.70 -17.80 60
NA 09:00:00 ET 50.55 -16.16 55
NA 12:00:00 ET 50.40 -14.50 50

Source Information

Agency Information
USA
TOKYO
CMA
HKO
NEWDELHI
REUNION
BOM
NADI
WELLINGTON
DS824
TD9636
TD9635
NEUMANN
MLC

All available IBTrACS Data

SEASON BASIN SUBBASIN ISO_TIME_________ NATURE LAT LON DIST2LAND LANDFALL IFLAG USA SSHS MLC LAT MLC LON MLC CLASS MLC WIND MLC PRES STORM SPEED STORM DIR
Year degrees north degrees east km km 1 degrees north degrees east kts mb kts degrees
1865 NA CS 1865-09-30 12:00:00 TS 19.50 -82.30 218 186 _____________O -1 19.50 -82.30 TS 35 7 8
1865 NA CS 15:00:00 TS 19.85 -82.25 178 147 _____________P -1 19.85 -82.25 TS 37 7 8
1865 NA CS 18:00:00 TS 20.20 -82.20 147 118 _____________O -1 20.20 -82.20 TS 40 7 7
1865 NA CS 21:00:00 TS 20.55 -82.16 118 88 _____________P -1 20.55 -82.16 TS 42 7 8
1865 NA CS 1865-10-01 00:00:00 TS 20.90 -82.10 88 68 _____________O -1 20.90 -82.10 TS 45 7 12
1865 NA CS 03:00:00 TS 21.25 -82.00 61 56 _____________P -1 21.25 -82.00 TS 47 7 15
1865 NA CS 06:00:00 TS 21.60 -81.90 62 35 _____________O -1 21.60 -81.90 TS 50 7 10
1865 NA CS 09:00:00 TS 21.95 -81.87 35 0 _____________P -1 21.95 -81.87 TS 52 7 7
1865 NA NA 12:00:00 TS 22.30 -81.80 0 0 _____________O -1 22.30 -81.80 TS 55 8 21
1865 NA NA 15:00:00 TS 22.66 -81.57 0 0 _____________P -1 22.66 -81.57 TS 55 8 33
1865 NA NA 18:00:00 TS 23.00 -81.30 0 0 _____________O -1 23.00 -81.30 TS 55 8 34
1865 NA NA 21:00:00 TS 23.30 -81.10 30 30 _____________P -1 23.30 -81.10 TS 55 7 31
1865 NA NA 1865-10-02 00:00:00 TS 23.60 -80.90 67 67 _____________O -1 23.60 -80.90 TS 55 8 32
1865 NA NA 03:00:00 TS 23.95 -80.65 111 89 _____________P -1 23.95 -80.65 TS 52 8 33
1865 NA NA 06:00:00 TS 24.30 -80.40 89 56 _____________O -1 24.30 -80.40 TS 50 7 27
1865 NA NA 09:00:00 TS 24.61 -80.29 56 37 _____________P -1 24.61 -80.29 TS 50 7 31
1865 NA NA 12:00:00 TS 24.90 -80.00 46 46 _____________O -1 24.90 -80.00 TS 50 11 58
1865 NA NA 15:00:00 TS 25.20 -79.25 97 52 _____________P -1 25.20 -79.25 TS 50 17 69
1865 NA NA 18:00:00 TS 25.50 -78.30 48 45 _____________O -1 25.50 -78.30 TS 50 17 70
1865 NA NA 21:00:00 TS 25.80 -77.45 98 98 _____________P -1 25.80 -77.45 TS 50 16 69
1865 NA NA 1865-10-03 00:00:00 TS 26.10 -76.60 179 179 _____________O -1 26.10 -76.60 TS 50 16 69
1865 NA NA 03:00:00 TS 26.40 -75.75 272 272 _____________P -1 26.40 -75.75 TS 50 16 68
1865 NA NA 06:00:00 TS 26.70 -74.90 357 357 _____________O -1 26.70 -74.90 TS 50 15 72
1865 NA NA 09:00:00 TS 26.85 -74.20 429 429 _____________P -1 26.85 -74.20 TS 50 16 68
1865 NA NA 12:00:00 TS 27.30 -73.20 537 537 _____________O -1 27.30 -73.20 TS 50 29 57
1865 NA NA 15:00:00 TS 28.42 -71.47 742 742 _____________P -1 28.42 -71.47 TS 50 42 53
1865 NA NA 18:00:00 TS 29.80 -69.40 861 860 _____________O -1 29.80 -69.40 TS 50 43 54
1865 NA NA 21:00:00 TS 30.98 -67.46 913 913 _____________P -1 30.98 -67.46 TS 50 41 54
1865 NA NA 1865-10-04 00:00:00 TS 32.20 -65.50 1003 1003 _____________O -1 32.20 -65.50 TS 50 1001 42 53
1865 NA NA 03:00:00 TS 33.53 -63.50 1076 1019 _____________P -1 33.53 -63.50 TS 50 43 51
1865 NA NA 06:00:00 TS 34.90 -61.50 1011 959 _____________O -1 34.90 -61.50 TS 50 44 52
1865 NA NA 09:00:00 TS 36.22 -59.25 958 915 _____________P -1 36.22 -59.25 TS 45 41 51
1865 NA NA 12:00:00 TS 37.50 -57.50 907 801 _____________O -1 37.50 -57.50 TS 40 31 36
1865 NA NA 15:00:00 TS 38.75 -56.93 791 681 _____________P -1 38.75 -56.93 TS 37 25 11
1865 NA NA 18:00:00 ET 40.00 -56.90 671 574 _____________O -1 40.00 -56.90 EX 35 25 6
1865 NA NA 21:00:00 ET 41.25 -56.60 574 482 _____________P -1 41.25 -56.60 EX 35 25 10
1865 NA NA 1865-10-05 00:00:00 ET 42.50 -56.30 474 345 _____________O -1 42.50 -56.30 EX 35 25 10
1865 NA NA 03:00:00 ET 43.75 -56.01 345 211 _____________P -1 43.75 -56.01 EX 37 25 10
1865 NA NA 06:00:00 ET 45.00 -55.70 199 56 _____________O -1 45.00 -55.70 EX 40 26 7
1865 NA NA 09:00:00 ET 46.34 -55.54 57 0 _____________P -1 46.34 -55.54 EX 40 25 11
1865 NA NA 12:00:00 ET 47.50 -55.00 0 0 _____________O -1 47.50 -55.00 EX 40 23 36
1865 NA NA 15:00:00 ET 48.21 -53.55 0 0 _____________P -1 48.21 -53.55 EX 40 25 61
1865 NA NA 18:00:00 ET 48.70 -51.70 97 97 _____________O -1 48.70 -51.70 EX 40 25 67
1865 NA NA 21:00:00 ET 49.22 -50.00 231 231 _____________P -1 49.22 -50.00 EX 40 25 64
1865 NA NA 1865-10-06 00:00:00 ET 49.80 -48.30 369 369 _____________O -1 49.80 -48.30 EX 40 26 57
1865 NA NA 03:00:00 ET 50.63 -46.61 511 511 _____________P -1 50.63 -46.61 EX 40 27 53
1865 NA NA 06:00:00 ET 51.40 -44.90 649 649 _____________O -1 51.40 -44.90 EX 40 24 61
1865 NA NA 09:00:00 ET 51.82 -43.20 774 774 _____________P -1 51.82 -43.20 EX 42 22 74
1865 NA NA 12:00:00 ET 52.00 -41.50 892 892 _____________O -1 52.00 -41.50 EX 45 21 84
1865 NA NA 15:00:00 ET 52.04 -39.75 919 919 _____________P -1 52.04 -39.75 EX 47 21 90
1865 NA NA 18:00:00 ET 52.00 -38.00 950 950 _____________O -1 52.00 -38.00 EX 50 21 91
1865 NA NA 21:00:00 ET 52.00 -36.25 989 989 _____________P -1 52.00 -36.25 EX 52 21 90
1865 NA NA 1865-10-07 00:00:00 ET 52.00 -34.50 1040 1040 _____________O -1 52.00 -34.50 EX 55 21 91
1865 NA NA 03:00:00 ET 51.95 -32.75 1100 1100 _____________P -1 51.95 -32.75 EX 57 21 93
1865 NA NA 06:00:00 ET 51.90 -31.00 1173 1173 _____________O -1 51.90 -31.00 EX 60 22 92
1865 NA NA 09:00:00 ET 51.86 -29.23 1245 1163 _____________P -1 51.86 -29.23 EX 60 22 93
1865 NA NA 12:00:00 ET 51.80 -27.50 1156 1056 _____________O -1 51.80 -27.50 EX 60 21 95
1865 NA NA 15:00:00 ET 51.67 -25.89 1050 951 _____________P -1 51.67 -25.89 EX 60 20 99
1865 NA NA 18:00:00 ET 51.50 -24.30 944 840 _____________O -1 51.50 -24.30 EX 60 20 100
1865 NA NA 21:00:00 ET 51.31 -22.65 840 736 _____________P -1 51.31 -22.65 EX 60 21 101
1865 NA NA 1865-10-08 00:00:00 ET 51.10 -21.00 729 633 _____________O -1 51.10 -21.00 EX 60 21 102
1865 NA NA 03:00:00 ET 50.89 -19.40 626 533 _____________P -1 50.89 -19.40 EX 60 20 101
1865 NA NA 06:00:00 ET 50.70 -17.80 526 429 _____________O -1 50.70 -17.80 EX 60 21 100
1865 NA NA 09:00:00 ET 50.55 -16.16 427 330 _____________P -1 50.55 -16.16 EX 55 21 98
1865 NA NA 12:00:00 ET 50.40 -14.50 324 _____________O -1 50.40 -14.50 EX 50 21 98